sensor_id;sensor_type;location;lat;lon;timestamp;P1;durP1;ratioP1;P2;durP2;ratioP2
62401;SDS011;48440;51.224;22.506;2023-04-03T00:02:22;2.42;;;1.67;;
62401;SDS011;48440;51.224;22.506;2023-04-03T00:04:47;2.50;;;1.58;;
62401;SDS011;48440;51.224;22.506;2023-04-03T00:07:13;2.00;;;1.42;;
62401;SDS011;48440;51.224;22.506;2023-04-03T00:09:39;3.05;;;1.60;;
62401;SDS011;48440;51.224;22.506;2023-04-03T00:12:05;2.05;;;1.50;;
62401;SDS011;48440;51.224;22.506;2023-04-03T00:14:30;2.13;;;1.45;;
62401;SDS011;48440;51.224;22.506;2023-04-03T00:16:56;1.83;;;1.40;;
62401;SDS011;48440;51.224;22.506;2023-04-03T00:19:21;1.88;;;1.40;;
62401;SDS011;48440;51.224;22.506;2023-04-03T00:21:47;1.83;;;1.30;;
62401;SDS011;48440;51.224;22.506;2023-04-03T00:24:12;1.98;;;1.40;;
62401;SDS011;48440;51.224;22.506;2023-04-03T00:26:37;1.20;;;1.10;;
62401;SDS011;48440;51.224;22.506;2023-04-03T00:29:03;1.80;;;1.13;;
62401;SDS011;48440;51.224;22.506;2023-04-03T00:31:28;1.30;;;1.02;;
62401;SDS011;48440;51.224;22.506;2023-04-03T00:33:54;1.60;;;1.10;;
62401;SDS011;48440;51.224;22.506;2023-04-03T00:36:20;1.42;;;1.20;;
62401;SDS011;48440;51.224;22.506;2023-04-03T00:38:45;1.45;;;1.13;;
62401;SDS011;48440;51.224;22.506;2023-04-03T00:41:10;1.10;;;1.00;;
62401;SDS011;48440;51.224;22.506;2023-04-03T00:43:36;1.27;;;1.10;;
62401;SDS011;48440;51.224;22.506;2023-04-03T00:46:02;1.10;;;1.00;;
62401;SDS011;48440;51.224;22.506;2023-04-03T00:48:31;1.30;;;1.10;;
62401;SDS011;48440;51.224;22.506;2023-04-03T00:50:59;1.45;;;1.10;;
62401;SDS011;48440;51.224;22.506;2023-04-03T00:53:35;1.30;;;1.20;;
62401;SDS011;48440;51.224;22.506;2023-04-03T00:56:06;1.10;;;1.00;;
62401;SDS011;48440;51.224;22.506;2023-04-03T00:58:37;1.67;;;1.27;;
62401;SDS011;48440;51.224;22.506;2023-04-03T01:01:08;2.25;;;1.30;;
62401;SDS011;48440;51.224;22.506;2023-04-03T01:03:39;1.83;;;1.52;;
62401;SDS011;48440;51.224;22.506;2023-04-03T01:06:05;1.80;;;1.10;;
62401;SDS011;48440;51.224;22.506;2023-04-03T01:08:30;1.38;;;1.15;;
62401;SDS011;48440;51.224;22.506;2023-04-03T01:10:56;2.10;;;1.45;;
62401;SDS011;48440;51.224;22.506;2023-04-03T01:13:27;2.15;;;1.58;;
62401;SDS011;48440;51.224;22.506;2023-04-03T01:15:55;2.30;;;1.55;;
62401;SDS011;48440;51.224;22.506;2023-04-03T01:18:22;2.53;;;1.70;;
62401;SDS011;48440;51.224;22.506;2023-04-03T01:25:53;2.50;;;1.58;;
62401;SDS011;48440;51.224;22.506;2023-04-03T01:28:24;2.95;;;1.98;;
62401;SDS011;48440;51.224;22.506;2023-04-03T01:33:35;2.85;;;1.70;;
62401;SDS011;48440;51.224;22.506;2023-04-03T01:36:02;3.40;;;1.88;;
62401;SDS011;48440;51.224;22.506;2023-04-03T01:38:28;3.50;;;1.65;;
62401;SDS011;48440;51.224;22.506;2023-04-03T01:40:53;1.73;;;1.50;;
62401;SDS011;48440;51.224;22.506;2023-04-03T01:43:18;2.70;;;1.50;;
62401;SDS011;48440;51.224;22.506;2023-04-03T01:45:44;1.67;;;1.23;;
62401;SDS011;48440;51.224;22.506;2023-04-03T01:48:11;1.83;;;1.30;;
62401;SDS011;48440;51.224;22.506;2023-04-03T01:50:36;1.98;;;1.42;;
62401;SDS011;48440;51.224;22.506;2023-04-03T01:53:02;2.20;;;1.23;;
62401;SDS011;48440;51.224;22.506;2023-04-03T01:55:28;2.20;;;1.10;;
62401;SDS011;48440;51.224;22.506;2023-04-03T01:57:53;1.35;;;1.10;;
62401;SDS011;48440;51.224;22.506;2023-04-03T02:00:18;1.70;;;1.10;;
62401;SDS011;48440;51.224;22.506;2023-04-03T02:02:44;1.35;;;1.10;;
62401;SDS011;48440;51.224;22.506;2023-04-03T02:05:09;1.33;;;1.10;;
62401;SDS011;48440;51.224;22.506;2023-04-03T02:07:35;1.38;;;1.17;;
62401;SDS011;48440;51.224;22.506;2023-04-03T02:10:00;1.70;;;1.10;;
62401;SDS011;48440;51.224;22.506;2023-04-03T02:12:26;1.65;;;1.30;;
62401;SDS011;48440;51.224;22.506;2023-04-03T02:14:52;1.48;;;1.05;;
62401;SDS011;48440;51.224;22.506;2023-04-03T02:17:17;1.92;;;1.20;;
62401;SDS011;48440;51.224;22.506;2023-04-03T02:19:42;1.45;;;1.10;;
62401;SDS011;48440;51.224;22.506;2023-04-03T02:22:08;1.88;;;1.13;;
62401;SDS011;48440;51.224;22.506;2023-04-03T02:24:33;2.38;;;1.00;;
62401;SDS011;48440;51.224;22.506;2023-04-03T02:26:59;1.48;;;0.93;;
62401;SDS011;48440;51.224;22.506;2023-04-03T02:29:24;1.00;;;0.80;;
62401;SDS011;48440;51.224;22.506;2023-04-03T02:31:50;1.48;;;0.95;;
62401;SDS011;48440;51.224;22.506;2023-04-03T02:34:16;0.80;;;0.80;;
62401;SDS011;48440;51.224;22.506;2023-04-03T02:36:41;1.98;;;1.02;;
62401;SDS011;48440;51.224;22.506;2023-04-03T02:39:07;1.35;;;1.00;;
62401;SDS011;48440;51.224;22.506;2023-04-03T02:41:33;1.20;;;1.00;;
62401;SDS011;48440;51.224;22.506;2023-04-03T02:44:01;1.63;;;1.10;;
62401;SDS011;48440;51.224;22.506;2023-04-03T02:46:28;1.13;;;0.90;;
62401;SDS011;48440;51.224;22.506;2023-04-03T02:48:53;1.80;;;1.05;;
62401;SDS011;48440;51.224;22.506;2023-04-03T02:51:19;2.13;;;1.40;;
62401;SDS011;48440;51.224;22.506;2023-04-03T02:53:45;1.60;;;1.30;;
62401;SDS011;48440;51.224;22.506;2023-04-03T02:56:10;1.40;;;1.17;;
62401;SDS011;48440;51.224;22.506;2023-04-03T02:58:36;1.67;;;1.40;;
62401;SDS011;48440;51.224;22.506;2023-04-03T03:01:01;1.23;;;1.13;;
62401;SDS011;48440;51.224;22.506;2023-04-03T03:03:27;1.30;;;1.10;;
62401;SDS011;48440;51.224;22.506;2023-04-03T03:06:03;2.42;;;1.35;;
62401;SDS011;48440;51.224;22.506;2023-04-03T03:08:29;1.40;;;1.20;;
62401;SDS011;48440;51.224;22.506;2023-04-03T03:10:55;2.00;;;1.35;;
62401;SDS011;48440;51.224;22.506;2023-04-03T03:13:21;1.40;;;1.10;;
62401;SDS011;48440;51.224;22.506;2023-04-03T03:15:46;1.13;;;1.00;;
62401;SDS011;48440;51.224;22.506;2023-04-03T03:18:11;1.40;;;0.93;;
62401;SDS011;48440;51.224;22.506;2023-04-03T03:20:37;1.05;;;0.88;;
62401;SDS011;48440;51.224;22.506;2023-04-03T03:23:02;1.08;;;0.80;;
62401;SDS011;48440;51.224;22.506;2023-04-03T03:25:28;1.75;;;1.10;;
62401;SDS011;48440;51.224;22.506;2023-04-03T03:27:53;3.33;;;1.10;;
62401;SDS011;48440;51.224;22.506;2023-04-03T03:30:18;1.35;;;0.88;;
62401;SDS011;48440;51.224;22.506;2023-04-03T03:32:44;2.33;;;0.98;;
62401;SDS011;48440;51.224;22.506;2023-04-03T03:35:10;1.20;;;0.80;;
62401;SDS011;48440;51.224;22.506;2023-04-03T03:37:35;1.27;;;1.00;;
62401;SDS011;48440;51.224;22.506;2023-04-03T03:40:00;1.75;;;0.90;;
62401;SDS011;48440;51.224;22.506;2023-04-03T03:42:26;1.45;;;0.90;;
62401;SDS011;48440;51.224;22.506;2023-04-03T03:44:51;1.00;;;0.90;;
62401;SDS011;48440;51.224;22.506;2023-04-03T03:47:17;1.70;;;0.90;;
62401;SDS011;48440;51.224;22.506;2023-04-03T03:49:42;1.38;;;0.98;;
62401;SDS011;48440;51.224;22.506;2023-04-03T03:52:11;2.28;;;0.95;;
62401;SDS011;48440;51.224;22.506;2023-04-03T03:54:36;1.38;;;0.90;;
62401;SDS011;48440;51.224;22.506;2023-04-03T03:57:02;1.50;;;1.00;;
62401;SDS011;48440;51.224;22.506;2023-04-03T03:59:28;1.13;;;0.88;;
62401;SDS011;48440;51.224;22.506;2023-04-03T04:01:53;1.52;;;0.80;;
62401;SDS011;48440;51.224;22.506;2023-04-03T04:04:19;2.65;;;0.90;;
62401;SDS011;48440;51.224;22.506;2023-04-03T04:06:45;2.33;;;1.20;;
62401;SDS011;48440;51.224;22.506;2023-04-03T04:09:11;1.23;;;1.00;;
62401;SDS011;48440;51.224;22.506;2023-04-03T04:11:36;1.45;;;0.93;;
62401;SDS011;48440;51.224;22.506;2023-04-03T04:14:01;1.90;;;1.00;;
62401;SDS011;48440;51.224;22.506;2023-04-03T04:16:27;2.90;;;1.10;;
62401;SDS011;48440;51.224;22.506;2023-04-03T04:18:52;1.75;;;1.20;;
62401;SDS011;48440;51.224;22.506;2023-04-03T04:21:18;2.78;;;1.17;;
62401;SDS011;48440;51.224;22.506;2023-04-03T04:23:43;2.00;;;1.25;;
62401;SDS011;48440;51.224;22.506;2023-04-03T04:26:09;1.13;;;0.90;;
62401;SDS011;48440;51.224;22.506;2023-04-03T04:28:34;1.30;;;0.90;;
62401;SDS011;48440;51.224;22.506;2023-04-03T04:31:00;1.27;;;0.90;;
62401;SDS011;48440;51.224;22.506;2023-04-03T04:33:25;2.72;;;0.90;;
62401;SDS011;48440;51.224;22.506;2023-04-03T04:35:51;2.13;;;1.20;;
62401;SDS011;48440;51.224;22.506;2023-04-03T04:38:16;3.15;;;1.20;;
62401;SDS011;48440;51.224;22.506;2023-04-03T04:40:42;2.58;;;1.40;;
62401;SDS011;48440;51.224;22.506;2023-04-03T04:43:07;1.98;;;1.02;;
62401;SDS011;48440;51.224;22.506;2023-04-03T04:45:33;2.15;;;1.00;;
62401;SDS011;48440;51.224;22.506;2023-04-03T04:47:58;3.08;;;1.10;;
62401;SDS011;48440;51.224;22.506;2023-04-03T04:50:24;3.13;;;1.23;;
62401;SDS011;48440;51.224;22.506;2023-04-03T04:52:49;1.77;;;1.08;;
62401;SDS011;48440;51.224;22.506;2023-04-03T04:55:15;1.88;;;1.10;;
62401;SDS011;48440;51.224;22.506;2023-04-03T04:57:40;2.38;;;1.08;;
62401;SDS011;48440;51.224;22.506;2023-04-03T05:00:06;1.65;;;1.00;;
62401;SDS011;48440;51.224;22.506;2023-04-03T05:02:32;2.22;;;1.33;;
62401;SDS011;48440;51.224;22.506;2023-04-03T05:04:57;1.70;;;1.20;;
62401;SDS011;48440;51.224;22.506;2023-04-03T05:07:23;2.33;;;1.80;;
62401;SDS011;48440;51.224;22.506;2023-04-03T05:09:49;2.03;;;1.17;;
62401;SDS011;48440;51.224;22.506;2023-04-03T05:12:15;2.10;;;1.20;;
62401;SDS011;48440;51.224;22.506;2023-04-03T05:14:41;1.85;;;1.30;;
62401;SDS011;48440;51.224;22.506;2023-04-03T05:17:06;1.80;;;1.10;;
62401;SDS011;48440;51.224;22.506;2023-04-03T05:19:32;2.25;;;1.50;;
62401;SDS011;48440;51.224;22.506;2023-04-03T05:21:57;2.35;;;1.33;;
62401;SDS011;48440;51.224;22.506;2023-04-03T05:24:23;2.22;;;1.20;;
62401;SDS011;48440;51.224;22.506;2023-04-03T05:26:48;1.63;;;1.23;;
62401;SDS011;48440;51.224;22.506;2023-04-03T05:29:13;2.17;;;1.30;;
62401;SDS011;48440;51.224;22.506;2023-04-03T05:31:39;1.75;;;1.23;;
62401;SDS011;48440;51.224;22.506;2023-04-03T05:34:04;1.52;;;1.13;;
62401;SDS011;48440;51.224;22.506;2023-04-03T05:36:30;1.77;;;1.27;;
62401;SDS011;48440;51.224;22.506;2023-04-03T05:38:56;3.25;;;1.58;;
62401;SDS011;48440;51.224;22.506;2023-04-03T05:41:22;2.50;;;1.63;;
62401;SDS011;48440;51.224;22.506;2023-04-03T05:43:47;2.25;;;1.20;;
62401;SDS011;48440;51.224;22.506;2023-04-03T05:46:14;2.92;;;1.25;;
62401;SDS011;48440;51.224;22.506;2023-04-03T05:48:42;2.60;;;1.10;;
62401;SDS011;48440;51.224;22.506;2023-04-03T05:51:13;1.65;;;1.10;;
62401;SDS011;48440;51.224;22.506;2023-04-03T05:53:42;2.42;;;1.27;;
62401;SDS011;48440;51.224;22.506;2023-04-03T05:56:09;1.80;;;1.05;;
62401;SDS011;48440;51.224;22.506;2023-04-03T05:58:34;3.67;;;1.40;;
62401;SDS011;48440;51.224;22.506;2023-04-03T06:01:00;2.85;;;1.30;;
62401;SDS011;48440;51.224;22.506;2023-04-03T06:03:25;2.28;;;1.30;;
62401;SDS011;48440;51.224;22.506;2023-04-03T06:05:51;2.30;;;1.40;;
62401;SDS011;48440;51.224;22.506;2023-04-03T06:08:17;2.63;;;1.58;;
62401;SDS011;48440;51.224;22.506;2023-04-03T06:10:42;2.13;;;1.20;;
62401;SDS011;48440;51.224;22.506;2023-04-03T06:13:07;1.85;;;1.33;;
62401;SDS011;48440;51.224;22.506;2023-04-03T06:15:33;2.35;;;1.60;;
62401;SDS011;48440;51.224;22.506;2023-04-03T06:17:59;1.98;;;1.35;;
62401;SDS011;48440;51.224;22.506;2023-04-03T06:20:25;2.00;;;1.30;;
62401;SDS011;48440;51.224;22.506;2023-04-03T06:22:50;1.58;;;1.10;;
62401;SDS011;48440;51.224;22.506;2023-04-03T06:25:16;1.60;;;1.10;;
62401;SDS011;48440;51.224;22.506;2023-04-03T06:27:43;2.05;;;1.13;;
62401;SDS011;48440;51.224;22.506;2023-04-03T06:30:09;1.33;;;0.80;;
62401;SDS011;48440;51.224;22.506;2023-04-03T06:32:36;1.73;;;1.00;;
62401;SDS011;48440;51.224;22.506;2023-04-03T06:35:02;1.35;;;1.00;;
62401;SDS011;48440;51.224;22.506;2023-04-03T06:37:28;1.63;;;1.00;;
62401;SDS011;48440;51.224;22.506;2023-04-03T06:39:54;2.20;;;1.27;;
62401;SDS011;48440;51.224;22.506;2023-04-03T06:42:20;1.80;;;1.10;;
62401;SDS011;48440;51.224;22.506;2023-04-03T06:44:46;1.95;;;1.00;;
62401;SDS011;48440;51.224;22.506;2023-04-03T06:47:15;1.90;;;1.00;;
62401;SDS011;48440;51.224;22.506;2023-04-03T06:49:42;1.73;;;0.80;;
62401;SDS011;48440;51.224;22.506;2023-04-03T06:52:07;1.85;;;1.08;;
62401;SDS011;48440;51.224;22.506;2023-04-03T06:54:33;2.35;;;1.00;;
62401;SDS011;48440;51.224;22.506;2023-04-03T06:56:59;1.63;;;1.02;;
62401;SDS011;48440;51.224;22.506;2023-04-03T06:59:25;1.77;;;1.10;;
62401;SDS011;48440;51.224;22.506;2023-04-03T07:01:51;1.90;;;0.95;;
62401;SDS011;48440;51.224;22.506;2023-04-03T07:04:16;2.60;;;1.23;;
62401;SDS011;48440;51.224;22.506;2023-04-03T07:06:45;2.10;;;1.05;;
62401;SDS011;48440;51.224;22.506;2023-04-03T07:09:11;1.83;;;1.20;;
62401;SDS011;48440;51.224;22.506;2023-04-03T07:11:38;1.60;;;1.00;;
62401;SDS011;48440;51.224;22.506;2023-04-03T07:14:03;2.38;;;1.42;;
62401;SDS011;48440;51.224;22.506;2023-04-03T07:16:29;2.55;;;1.20;;
62401;SDS011;48440;51.224;22.506;2023-04-03T07:18:57;1.92;;;1.20;;
62401;SDS011;48440;51.224;22.506;2023-04-03T07:21:23;1.95;;;1.13;;
62401;SDS011;48440;51.224;22.506;2023-04-03T07:23:48;1.67;;;1.20;;
62401;SDS011;48440;51.224;22.506;2023-04-03T07:26:14;2.72;;;1.00;;
62401;SDS011;48440;51.224;22.506;2023-04-03T07:28:39;1.42;;;0.93;;
62401;SDS011;48440;51.224;22.506;2023-04-03T07:31:07;2.58;;;1.10;;
62401;SDS011;48440;51.224;22.506;2023-04-03T07:33:36;1.70;;;1.08;;
62401;SDS011;48440;51.224;22.506;2023-04-03T07:36:02;1.95;;;1.10;;
62401;SDS011;48440;51.224;22.506;2023-04-03T07:38:28;1.95;;;1.30;;
62401;SDS011;48440;51.224;22.506;2023-04-03T07:40:54;2.17;;;1.00;;
62401;SDS011;48440;51.224;22.506;2023-04-03T07:43:20;1.58;;;1.10;;
62401;SDS011;48440;51.224;22.506;2023-04-03T07:45:47;3.55;;;1.20;;
62401;SDS011;48440;51.224;22.506;2023-04-03T07:48:15;3.38;;;1.52;;
62401;SDS011;48440;51.224;22.506;2023-04-03T07:50:42;2.95;;;1.60;;
62401;SDS011;48440;51.224;22.506;2023-04-03T07:53:08;2.50;;;1.40;;
62401;SDS011;48440;51.224;22.506;2023-04-03T07:55:34;2.35;;;1.30;;
62401;SDS011;48440;51.224;22.506;2023-04-03T07:58:02;3.38;;;1.50;;
62401;SDS011;48440;51.224;22.506;2023-04-03T08:00:28;2.63;;;1.40;;
62401;SDS011;48440;51.224;22.506;2023-04-03T08:02:54;3.15;;;1.05;;
62401;SDS011;48440;51.224;22.506;2023-04-03T08:05:20;1.92;;;1.10;;
62401;SDS011;48440;51.224;22.506;2023-04-03T08:07:46;2.10;;;1.20;;
62401;SDS011;48440;51.224;22.506;2023-04-03T08:10:12;3.60;;;1.38;;
62401;SDS011;48440;51.224;22.506;2023-04-03T08:12:38;2.97;;;1.20;;
62401;SDS011;48440;51.224;22.506;2023-04-03T08:15:04;1.95;;;1.30;;
62401;SDS011;48440;51.224;22.506;2023-04-03T08:17:30;2.13;;;1.10;;
62401;SDS011;48440;51.224;22.506;2023-04-03T08:19:55;2.70;;;1.25;;
62401;SDS011;48440;51.224;22.506;2023-04-03T08:22:21;2.55;;;1.30;;
62401;SDS011;48440;51.224;22.506;2023-04-03T08:24:46;1.70;;;1.23;;
62401;SDS011;48440;51.224;22.506;2023-04-03T08:27:12;2.97;;;1.48;;
62401;SDS011;48440;51.224;22.506;2023-04-03T08:29:37;4.90;;;1.77;;
62401;SDS011;48440;51.224;22.506;2023-04-03T08:32:03;2.22;;;1.20;;
62401;SDS011;48440;51.224;22.506;2023-04-03T08:34:30;3.00;;;1.20;;
62401;SDS011;48440;51.224;22.506;2023-04-03T08:36:59;3.03;;;1.40;;
62401;SDS011;48440;51.224;22.506;2023-04-03T08:39:25;2.90;;;1.80;;
62401;SDS011;48440;51.224;22.506;2023-04-03T08:41:51;3.05;;;1.58;;
62401;SDS011;48440;51.224;22.506;2023-04-03T08:49:33;2.47;;;1.65;;
62401;SDS011;48440;51.224;22.506;2023-04-03T08:52:09;2.92;;;1.60;;
62401;SDS011;48440;51.224;22.506;2023-04-03T08:54:41;1.60;;;1.10;;
62401;SDS011;48440;51.224;22.506;2023-04-03T08:57:15;1.65;;;1.05;;
62401;SDS011;48440;51.224;22.506;2023-04-03T08:59:42;2.08;;;1.25;;
62401;SDS011;48440;51.224;22.506;2023-04-03T09:02:23;2.13;;;1.30;;
62401;SDS011;48440;51.224;22.506;2023-04-03T09:04:52;3.05;;;1.50;;
62401;SDS011;48440;51.224;22.506;2023-04-03T09:07:22;1.95;;;1.15;;
62401;SDS011;48440;51.224;22.506;2023-04-03T09:10:10;1.85;;;1.20;;
62401;SDS011;48440;51.224;22.506;2023-04-03T09:12:42;1.95;;;1.20;;
62401;SDS011;48440;51.224;22.506;2023-04-03T09:22:46;2.17;;;1.30;;
62401;SDS011;48440;51.224;22.506;2023-04-03T09:27:50;1.92;;;1.30;;
62401;SDS011;48440;51.224;22.506;2023-04-03T09:30:21;2.35;;;1.20;;
62401;SDS011;48440;51.224;22.506;2023-04-03T09:32:49;1.48;;;0.82;;
62401;SDS011;48440;51.224;22.506;2023-04-03T09:35:26;1.33;;;1.05;;
62401;SDS011;48440;51.224;22.506;2023-04-03T09:38:39;1.70;;;1.10;;
62401;SDS011;48440;51.224;22.506;2023-04-03T09:40:50;1.77;;;1.17;;
62401;SDS011;48440;51.224;22.506;2023-04-03T09:43:29;1.73;;;1.20;;
62401;SDS011;48440;51.224;22.506;2023-04-03T09:46:15;1.95;;;1.13;;
62401;SDS011;48440;51.224;22.506;2023-04-03T09:48:51;2.15;;;1.20;;
62401;SDS011;48440;51.224;22.506;2023-04-03T09:51:28;1.98;;;1.30;;
62401;SDS011;48440;51.224;22.506;2023-04-03T09:53:54;1.35;;;0.98;;
62401;SDS011;48440;51.224;22.506;2023-04-03T09:56:22;2.15;;;1.27;;
62401;SDS011;48440;51.224;22.506;2023-04-03T09:58:49;3.22;;;1.17;;
62401;SDS011;48440;51.224;22.506;2023-04-03T10:04:10;1.33;;;0.98;;
62401;SDS011;48440;51.224;22.506;2023-04-03T10:06:44;2.17;;;1.20;;
62401;SDS011;48440;51.224;22.506;2023-04-03T10:09:17;1.60;;;1.00;;
62401;SDS011;48440;51.224;22.506;2023-04-03T10:14:29;3.35;;;1.20;;
62401;SDS011;48440;51.224;22.506;2023-04-03T10:19:46;2.63;;;1.20;;
62401;SDS011;48440;51.224;22.506;2023-04-03T10:22:23;2.05;;;1.20;;
62401;SDS011;48440;51.224;22.506;2023-04-03T10:28:42;2.67;;;1.20;;
62401;SDS011;48440;51.224;22.506;2023-04-03T10:31:37;1.67;;;1.00;;
62401;SDS011;48440;51.224;22.506;2023-04-03T10:36:50;1.77;;;1.13;;
62401;SDS011;48440;51.224;22.506;2023-04-03T10:50:48;1.17;;;1.00;;
62401;SDS011;48440;51.224;22.506;2023-04-03T10:56:12;1.23;;;1.00;;
62401;SDS011;48440;51.224;22.506;2023-04-03T10:58:53;1.58;;;0.98;;
62401;SDS011;48440;51.224;22.506;2023-04-03T11:01:29;1.15;;;0.90;;
62401;SDS011;48440;51.224;22.506;2023-04-03T11:03:59;1.02;;;0.90;;
62401;SDS011;48440;51.224;22.506;2023-04-03T11:06:26;1.73;;;1.10;;
62401;SDS011;48440;51.224;22.506;2023-04-03T11:09:07;1.95;;;1.00;;
62401;SDS011;48440;51.224;22.506;2023-04-03T11:11:36;1.20;;;0.80;;
62401;SDS011;48440;51.224;22.506;2023-04-03T11:16:55;0.95;;;0.82;;
62401;SDS011;48440;51.224;22.506;2023-04-03T11:19:40;1.90;;;1.00;;
62401;SDS011;48440;51.224;22.506;2023-04-03T11:24:42;1.58;;;1.00;;
62401;SDS011;48440;51.224;22.506;2023-04-03T11:27:17;1.45;;;0.90;;
62401;SDS011;48440;51.224;22.506;2023-04-03T11:29:47;0.95;;;0.85;;
62401;SDS011;48440;51.224;22.506;2023-04-03T11:35:17;1.20;;;0.90;;
62401;SDS011;48440;51.224;22.506;2023-04-03T11:37:45;2.67;;;1.30;;
62401;SDS011;48440;51.224;22.506;2023-04-03T11:42:43;2.88;;;0.90;;
62401;SDS011;48440;51.224;22.506;2023-04-03T11:47:51;1.92;;;0.80;;
62401;SDS011;48440;51.224;22.506;2023-04-03T12:16:08;2.90;;;0.90;;
62401;SDS011;48440;51.224;22.506;2023-04-03T12:21:15;1.13;;;0.98;;
62401;SDS011;48440;51.224;22.506;2023-04-03T12:26:50;1.02;;;0.90;;
62401;SDS011;48440;51.224;22.506;2023-04-03T12:48:14;0.70;;;0.70;;
62401;SDS011;48440;51.224;22.506;2023-04-03T12:50:42;2.70;;;0.80;;
62401;SDS011;48440;51.224;22.506;2023-04-03T12:53:15;3.53;;;0.93;;
62401;SDS011;48440;51.224;22.506;2023-04-03T12:55:44;1.55;;;0.90;;
62401;SDS011;48440;51.224;22.506;2023-04-03T12:58:16;1.98;;;1.10;;
62401;SDS011;48440;51.224;22.506;2023-04-03T13:00:47;1.23;;;0.98;;
62401;SDS011;48440;51.224;22.506;2023-04-03T13:03:25;2.05;;;1.00;;
62401;SDS011;48440;51.224;22.506;2023-04-03T13:05:52;1.30;;;0.90;;
62401;SDS011;48440;51.224;22.506;2023-04-03T13:08:22;1.35;;;0.90;;
62401;SDS011;48440;51.224;22.506;2023-04-03T13:10:52;1.60;;;0.93;;
62401;SDS011;48440;51.224;22.506;2023-04-03T13:13:31;1.70;;;1.10;;
62401;SDS011;48440;51.224;22.506;2023-04-03T13:15:57;1.27;;;0.80;;
62401;SDS011;48440;51.224;22.506;2023-04-03T13:20:51;1.42;;;1.05;;
62401;SDS011;48440;51.224;22.506;2023-04-03T13:23:17;1.73;;;0.98;;
62401;SDS011;48440;51.224;22.506;2023-04-03T13:25:45;1.00;;;0.80;;
62401;SDS011;48440;51.224;22.506;2023-04-03T13:28:15;2.78;;;0.90;;
62401;SDS011;48440;51.224;22.506;2023-04-03T13:33:23;1.67;;;0.80;;
62401;SDS011;48440;51.224;22.506;2023-04-03T13:36:24;1.08;;;0.85;;
62401;SDS011;48440;51.224;22.506;2023-04-03T13:38:58;1.48;;;0.88;;
62401;SDS011;48440;51.224;22.506;2023-04-03T13:41:47;2.83;;;0.90;;
62401;SDS011;48440;51.224;22.506;2023-04-03T13:46:45;1.17;;;0.90;;
62401;SDS011;48440;51.224;22.506;2023-04-03T13:49:19;1.38;;;0.80;;
62401;SDS011;48440;51.224;22.506;2023-04-03T13:51:44;1.27;;;0.90;;
62401;SDS011;48440;51.224;22.506;2023-04-03T13:54:16;1.33;;;0.98;;
62401;SDS011;48440;51.224;22.506;2023-04-03T13:56:46;1.70;;;0.90;;
62401;SDS011;48440;51.224;22.506;2023-04-03T14:04:12;0.93;;;0.80;;
62401;SDS011;48440;51.224;22.506;2023-04-03T14:06:40;1.20;;;0.90;;
62401;SDS011;48440;51.224;22.506;2023-04-03T14:09:06;2.03;;;1.02;;
62401;SDS011;48440;51.224;22.506;2023-04-03T14:11:31;2.47;;;1.90;;
62401;SDS011;48440;51.224;22.506;2023-04-03T14:14:01;1.67;;;1.05;;
62401;SDS011;48440;51.224;22.506;2023-04-03T14:16:30;1.80;;;1.17;;
62401;SDS011;48440;51.224;22.506;2023-04-03T14:19:02;0.98;;;0.80;;
62401;SDS011;48440;51.224;22.506;2023-04-03T14:21:29;1.77;;;1.00;;
62401;SDS011;48440;51.224;22.506;2023-04-03T14:23:54;1.50;;;0.98;;
62401;SDS011;48440;51.224;22.506;2023-04-03T14:26:21;1.88;;;0.88;;
62401;SDS011;48440;51.224;22.506;2023-04-03T14:28:52;1.58;;;0.90;;
62401;SDS011;48440;51.224;22.506;2023-04-03T14:31:19;1.10;;;0.82;;
62401;SDS011;48440;51.224;22.506;2023-04-03T14:33:46;1.60;;;0.90;;
62401;SDS011;48440;51.224;22.506;2023-04-03T14:36:13;1.38;;;1.00;;
62401;SDS011;48440;51.224;22.506;2023-04-03T14:38:41;1.50;;;1.00;;
62401;SDS011;48440;51.224;22.506;2023-04-03T14:41:07;1.95;;;1.40;;
62401;SDS011;48440;51.224;22.506;2023-04-03T14:43:34;1.75;;;1.00;;
62401;SDS011;48440;51.224;22.506;2023-04-03T14:46:00;2.33;;;1.05;;
62401;SDS011;48440;51.224;22.506;2023-04-03T14:48:26;2.78;;;1.60;;
62401;SDS011;48440;51.224;22.506;2023-04-03T14:50:55;2.40;;;1.40;;
62401;SDS011;48440;51.224;22.506;2023-04-03T14:53:20;2.00;;;1.15;;
62401;SDS011;48440;51.224;22.506;2023-04-03T14:55:50;1.80;;;1.20;;
62401;SDS011;48440;51.224;22.506;2023-04-03T14:58:16;1.52;;;0.95;;
62401;SDS011;48440;51.224;22.506;2023-04-03T15:00:44;2.33;;;0.90;;
62401;SDS011;48440;51.224;22.506;2023-04-03T15:03:18;1.33;;;0.93;;
62401;SDS011;48440;51.224;22.506;2023-04-03T15:05:46;1.42;;;1.00;;
62401;SDS011;48440;51.224;22.506;2023-04-03T15:08:25;2.42;;;1.20;;
62401;SDS011;48440;51.224;22.506;2023-04-03T15:10:54;1.73;;;0.90;;
62401;SDS011;48440;51.224;22.506;2023-04-03T15:13:21;1.70;;;1.00;;
62401;SDS011;48440;51.224;22.506;2023-04-03T15:15:48;1.85;;;1.10;;
62401;SDS011;48440;51.224;22.506;2023-04-03T15:18:16;1.50;;;1.10;;
62401;SDS011;48440;51.224;22.506;2023-04-03T15:20:48;2.03;;;1.20;;
62401;SDS011;48440;51.224;22.506;2023-04-03T15:23:14;1.40;;;1.13;;
62401;SDS011;48440;51.224;22.506;2023-04-03T15:25:45;1.63;;;1.10;;
62401;SDS011;48440;51.224;22.506;2023-04-03T15:28:22;3.17;;;1.25;;
62401;SDS011;48440;51.224;22.506;2023-04-03T15:30:52;1.80;;;1.00;;
62401;SDS011;48440;51.224;22.506;2023-04-03T15:33:18;1.80;;;1.00;;
62401;SDS011;48440;51.224;22.506;2023-04-03T15:35:44;1.40;;;0.95;;
62401;SDS011;48440;51.224;22.506;2023-04-03T15:38:10;3.47;;;0.90;;
62401;SDS011;48440;51.224;22.506;2023-04-03T15:40:35;1.85;;;1.33;;
62401;SDS011;48440;51.224;22.506;2023-04-03T15:43:01;2.20;;;1.17;;
62401;SDS011;48440;51.224;22.506;2023-04-03T15:45:30;1.52;;;0.98;;
62401;SDS011;48440;51.224;22.506;2023-04-03T15:47:56;2.25;;;1.17;;
62401;SDS011;48440;51.224;22.506;2023-04-03T15:50:22;1.70;;;1.00;;
62401;SDS011;48440;51.224;22.506;2023-04-03T15:52:49;1.35;;;1.00;;
62401;SDS011;48440;51.224;22.506;2023-04-03T15:55:22;1.80;;;1.08;;
62401;SDS011;48440;51.224;22.506;2023-04-03T15:57:48;1.70;;;1.33;;
62401;SDS011;48440;51.224;22.506;2023-04-03T16:00:14;1.80;;;1.10;;
62401;SDS011;48440;51.224;22.506;2023-04-03T16:02:41;1.52;;;1.10;;
62401;SDS011;48440;51.224;22.506;2023-04-03T16:05:07;1.83;;;1.20;;
62401;SDS011;48440;51.224;22.506;2023-04-03T16:07:36;2.30;;;1.10;;
62401;SDS011;48440;51.224;22.506;2023-04-03T16:10:03;2.15;;;1.20;;
62401;SDS011;48440;51.224;22.506;2023-04-03T16:12:29;1.55;;;1.17;;
62401;SDS011;48440;51.224;22.506;2023-04-03T16:14:55;2.05;;;1.08;;
62401;SDS011;48440;51.224;22.506;2023-04-03T16:17:20;1.58;;;1.10;;
62401;SDS011;48440;51.224;22.506;2023-04-03T16:19:45;1.50;;;1.10;;
62401;SDS011;48440;51.224;22.506;2023-04-03T16:22:11;2.65;;;1.35;;
62401;SDS011;48440;51.224;22.506;2023-04-03T16:24:36;3.55;;;1.85;;
62401;SDS011;48440;51.224;22.506;2023-04-03T16:27:03;2.70;;;1.58;;
62401;SDS011;48440;51.224;22.506;2023-04-03T16:29:28;3.08;;;1.85;;
62401;SDS011;48440;51.224;22.506;2023-04-03T16:31:54;3.00;;;1.67;;
62401;SDS011;48440;51.224;22.506;2023-04-03T16:34:21;3.13;;;1.60;;
62401;SDS011;48440;51.224;22.506;2023-04-03T16:36:46;2.95;;;1.60;;
62401;SDS011;48440;51.224;22.506;2023-04-03T16:39:12;2.72;;;1.50;;
62401;SDS011;48440;51.224;22.506;2023-04-03T16:41:37;2.92;;;1.80;;
62401;SDS011;48440;51.224;22.506;2023-04-03T16:44:03;2.63;;;1.88;;
62401;SDS011;48440;51.224;22.506;2023-04-03T16:46:28;3.42;;;1.80;;